createdAt,value
2022-12-04T00:08:44.569Z,13.03
2022-12-04T00:18:52.807Z,13.09
2022-12-04T00:29:01.165Z,13.07
2022-12-04T00:39:09.423Z,13.26
2022-12-04T00:49:17.655Z,13.33
2022-12-04T00:59:25.894Z,12.77
2022-12-04T01:09:34.166Z,14.86
2022-12-04T01:19:42.223Z,14.02
2022-12-04T01:29:50.280Z,12.48
2022-12-04T01:39:58.000Z,12.81
2022-12-04T01:50:06.098Z,10.72
2022-12-04T02:00:14.130Z,10.4
2022-12-04T02:10:22.425Z,11.9
2022-12-04T02:20:31.113Z,13.12
2022-12-04T02:30:39.394Z,15
2022-12-04T02:40:47.654Z,12.84
2022-12-04T02:50:57.133Z,12.58
2022-12-04T03:01:05.539Z,12.6
2022-12-04T03:11:13.759Z,11.88
2022-12-04T03:21:22.009Z,11.96
2022-12-04T03:31:30.348Z,13
2022-12-04T03:41:38.594Z,13.67
2022-12-04T03:51:46.790Z,15.43
2022-12-04T04:01:54.984Z,14.74
2022-12-04T04:12:03.115Z,14.76
2022-12-04T04:22:11.365Z,14.66
2022-12-04T04:32:19.511Z,14.19
2022-12-04T04:42:27.810Z,13.38
2022-12-04T04:52:36.119Z,11.2
2022-12-04T05:02:45.396Z,12.31
2022-12-04T05:12:55.029Z,12.27
2022-12-04T05:23:03.482Z,11.45
2022-12-04T05:33:11.700Z,10
2022-12-04T05:43:19.797Z,9.12
2022-12-04T05:53:28.153Z,9.8
2022-12-04T06:03:36.342Z,10.59
2022-12-04T06:13:44.373Z,11.07
2022-12-04T06:23:52.816Z,11.18
2022-12-04T06:34:01.035Z,10.72
2022-12-04T06:44:09.282Z,10.17
2022-12-04T06:54:18.647Z,9.82
2022-12-04T07:04:26.908Z,9.58
2022-12-04T07:14:35.096Z,8.03
2022-12-04T07:24:43.961Z,9.24
2022-12-04T07:34:52.177Z,9.3
2022-12-04T07:45:01.653Z,9.36
2022-12-04T07:55:10.119Z,8.94
2022-12-04T08:05:18.267Z,8.78
2022-12-04T08:15:26.626Z,8.27
2022-12-04T08:25:34.839Z,8.14
2022-12-04T08:35:43.190Z,8.06
2022-12-04T08:45:51.529Z,8.37
2022-12-04T08:55:59.649Z,7.8
2022-12-04T09:06:08.118Z,7.49
2022-12-04T09:16:16.394Z,8.15
2022-12-04T09:26:24.558Z,9.53
2022-12-04T09:36:33.084Z,12.7
2022-12-04T09:46:41.505Z,7.7
2022-12-04T09:56:49.691Z,8.12
2022-12-04T10:06:58.092Z,7.29
2022-12-04T10:17:06.473Z,6.93
2022-12-04T10:27:15.241Z,8.27
2022-12-04T10:37:23.999Z,8.79
2022-12-04T10:47:32.489Z,7.84
2022-12-04T10:57:40.968Z,9.35
2022-12-04T11:07:49.665Z,10.3
2022-12-04T11:17:57.910Z,7.69
2022-12-04T11:28:06.284Z,7.63
2022-12-04T11:38:15.099Z,8.48
2022-12-04T11:48:23.501Z,7.96
2022-12-04T11:58:32.048Z,7.9
2022-12-04T12:08:40.667Z,11.46
2022-12-04T12:18:48.988Z,9.25
2022-12-04T12:28:57.469Z,8.39
2022-12-04T12:39:05.761Z,6.8
2022-12-04T12:49:16.609Z,5.96
2022-12-04T13:09:18.981Z,5.31
2022-12-04T13:29:27.461Z,6.92
2022-12-04T13:39:28.963Z,6.8
2022-12-04T13:49:36.066Z,9.54
2022-12-04T13:59:40.497Z,8.55
2022-12-04T14:19:47.478Z,7.96
2022-12-04T14:29:46.778Z,14.43
2022-12-04T14:39:49.586Z,2.85
2022-12-04T14:59:50.534Z,2.66
2022-12-04T15:09:59.002Z,2.79
2022-12-04T15:20:07.672Z,2.83
2022-12-04T15:30:17.146Z,3.05
2022-12-04T15:40:36.989Z,5.12
2022-12-04T15:50:42.208Z,4.71
2022-12-04T16:00:44.938Z,3.52
2022-12-04T16:20:47.121Z,2.98
2022-12-04T16:30:56.165Z,3.17
2022-12-04T16:41:06.223Z,4.42
2022-12-04T16:51:06.405Z,8.19
2022-12-04T17:01:05.251Z,12.64
2022-12-04T17:11:21.865Z,9.02
2022-12-04T17:21:36.567Z,4.63
2022-12-04T17:31:26.097Z,4.92
2022-12-04T17:41:41.403Z,5.65
2022-12-04T17:51:57.481Z,4.97
2022-12-04T18:01:57.128Z,10.59
2022-12-04T18:11:58.056Z,19.45
2022-12-04T18:22:12.118Z,11.44
2022-12-04T18:32:02.494Z,8.19
2022-12-04T18:42:01.916Z,13.4
2022-12-04T18:52:10.619Z,12.13
2022-12-04T19:02:19.153Z,12.38
2022-12-04T19:12:28.774Z,16.21
2022-12-04T19:22:38.103Z,10.99
2022-12-04T19:32:47.910Z,12.47
2022-12-04T19:43:14.192Z,15.24
2022-12-04T19:53:16.467Z,14.66
2022-12-04T20:03:41.341Z,18.05
2022-12-04T20:13:09.512Z,13.07
2022-12-04T20:23:17.909Z,16.09
2022-12-04T20:33:33.071Z,16.1
2022-12-04T20:43:32.170Z,10.85
2022-12-04T20:53:41.711Z,10.66
2022-12-04T21:03:50.330Z,9.87
2022-12-04T21:13:58.858Z,9.85
2022-12-04T21:24:07.477Z,10.82
2022-12-04T21:34:16.126Z,11.17
2022-12-04T21:44:24.959Z,12.69
2022-12-04T21:54:33.670Z,12.13
2022-12-04T22:04:43.228Z,12.6
2022-12-04T22:14:51.639Z,10.92
2022-12-04T22:25:01.558Z,10.94
2022-12-04T22:35:08.380Z,9.76
2022-12-04T22:45:18.173Z,10.29
2022-12-04T22:55:26.474Z,9.88
2022-12-04T23:05:35.223Z,10.37
2022-12-04T23:15:43.570Z,10.03
2022-12-04T23:25:53.252Z,10.3
2022-12-04T23:36:00.763Z,10.6
2022-12-04T23:46:10.846Z,11.77
2022-12-04T23:56:17.129Z,9.7
